Time;durP1;ratioP1;P1;durP2;ratioP2;P2;SDS_P1;SDS_P2;PMS_P1;PMS_P2;Temp;Humidity;BMP_temperature;BMP_pressure;BME280_temperature;BME280_humidity;BME280_pressure;Samples;Min_cycle;Max_cycle;Signal;HPM_P1;HPM_P2
2021/04/27 00:01:52;;;;;;;9.27;5.17;;;;;;;;;;5100718;28;20284;-67
2021/04/27 00:04:19;;;;;;;5.77;5.10;;;;;;;;;;5103738;28;20221;-67
2021/04/27 00:06:47;;;;;;;8.40;5.30;;;;;;;;;;5100813;28;20292;-67
2021/04/27 00:09:14;;;;;;;7.00;5.37;;;;;;;;;;5091062;28;20198;-68
2021/04/27 00:11:41;;;;;;;6.47;4.87;;;;;;;;;;5088732;28;20281;-67
2021/04/27 00:14:09;;;;;;;8.53;5.00;;;;;;;;;;5095774;28;20228;-68
2021/04/27 00:16:36;;;;;;;10.63;5.47;;;;;;;;;;5108558;28;20253;-68
2021/04/27 00:19:05;;;;;;;6.43;5.20;;;;;;;;;;5100333;28;20229;-65
2021/04/27 00:21:32;;;;;;;9.07;5.10;;;;;;;;;;5098951;28;20708;-66
2021/04/27 00:24:00;;;;;;;5.73;4.80;;;;;;;;;;5099649;28;20241;-67
2021/04/27 00:26:29;;;;;;;6.27;4.90;;;;;;;;;;5103208;28;20193;-67
2021/04/27 00:28:56;;;;;;;10.50;5.20;;;;;;;;;;5107338;28;20281;-66
2021/04/27 00:31:23;;;;;;;7.60;5.73;;;;;;;;;;5100090;28;20258;-67
2021/04/27 00:33:50;;;;;;;5.83;5.33;;;;;;;;;;5100715;28;20267;-66
2021/04/27 00:36:17;;;;;;;6.27;5.00;;;;;;;;;;5100276;28;20316;-67
2021/04/27 00:38:45;;;;;;;7.70;5.47;;;;;;;;;;5100746;28;20216;-65
2021/04/27 00:41:13;;;;;;;7.53;5.60;;;;;;;;;;5100489;28;20234;-66
2021/04/27 00:43:40;;;;;;;9.37;5.60;;;;;;;;;;5100658;28;20212;-66
2021/04/27 00:46:08;;;;;;;8.10;5.43;;;;;;;;;;5100580;28;20237;-67
2021/04/27 00:48:35;;;;;;;7.70;4.97;;;;;;;;;;5100216;28;20209;-67
2021/04/27 00:51:02;;;;;;;7.17;5.40;;;;;;;;;;5099898;28;20653;-66
2021/04/27 00:53:30;;;;;;;8.20;5.20;;;;;;;;;;5100508;28;20297;-67
2021/04/27 00:55:58;;;;;;;8.67;5.70;;;;;;;;;;5100207;28;20233;-67
2021/04/27 00:58:27;;;;;;;8.27;6.00;;;;;;;;;;5100362;28;20216;-68
2021/04/27 01:00:54;;;;;;;7.03;5.50;;;;;;;;;;5100346;28;20273;-68
2021/04/27 01:03:21;;;;;;;9.70;5.70;;;;;;;;;;5100393;28;20266;-67
2021/04/27 01:05:48;;;;;;;6.70;4.73;;;;;;;;;;5099609;28;20811;-67
2021/04/27 01:08:17;;;;;;;10.47;5.67;;;;;;;;;;5100194;28;20213;-68
2021/04/27 01:10:52;;;;;;;8.83;5.80;;;;;;;;;;5099984;28;20208;-66
2021/04/27 01:13:22;;;;;;;5.93;5.30;;;;;;;;;;5100079;28;20292;-67
2021/04/27 01:15:50;;;;;;;6.60;4.70;;;;;;;;;;5100114;28;20307;-67
2021/04/27 01:18:19;;;;;;;7.37;5.33;;;;;;;;;;5099785;28;20237;-68
2021/04/27 01:20:48;;;;;;;6.60;5.00;;;;;;;;;;5099713;28;20205;-68
2021/04/27 01:23:32;;;;;;;5.47;4.97;;;;;;;;;;5100404;28;20292;-67
2021/04/27 01:26:02;;;;;;;7.53;5.93;;;;;;;;;;5100080;28;20313;-67
2021/04/27 01:28:30;;;;;;;7.17;5.03;;;;;;;;;;5099812;28;20206;-68
2021/04/27 01:30:57;;;;;;;9.10;5.47;;;;;;;;;;5099560;28;20293;-67
2021/04/27 01:33:27;;;;;;;8.67;5.27;;;;;;;;;;5099615;28;20289;-67
2021/04/27 01:35:55;;;;;;;8.00;5.37;;;;;;;;;;5099084;28;20285;-67
2021/04/27 01:38:22;;;;;;;6.77;5.07;;;;;;;;;;5099381;28;20205;-66
2021/04/27 01:40:49;;;;;;;7.73;5.03;;;;;;;;;;5099742;28;20292;-67
2021/04/27 01:43:17;;;;;;;11.87;5.20;;;;;;;;;;5099121;28;20204;-68
2021/04/27 01:45:46;;;;;;;6.33;5.37;;;;;;;;;;5099035;28;20265;-68
2021/04/27 01:48:14;;;;;;;7.63;5.17;;;;;;;;;;5099399;28;20288;-68
2021/04/27 01:50:41;;;;;;;8.40;4.40;;;;;;;;;;5099002;28;20237;-68
2021/04/27 01:53:09;;;;;;;5.90;4.70;;;;;;;;;;5099336;28;20292;-68
2021/04/27 01:55:36;;;;;;;6.27;4.77;;;;;;;;;;5098852;28;20756;-68
2021/04/27 01:58:03;;;;;;;6.20;5.10;;;;;;;;;;5099635;28;20270;-68
2021/04/27 02:00:30;;;;;;;5.73;4.50;;;;;;;;;;5099154;28;20676;-67
2021/04/27 02:02:58;;;;;;;7.80;5.00;;;;;;;;;;5099156;28;20328;-67
2021/04/27 02:05:25;;;;;;;5.53;4.30;;;;;;;;;;5098738;28;20236;-67
2021/04/27 02:07:52;;;;;;;5.60;4.70;;;;;;;;;;5099104;28;20237;-67
2021/04/27 02:10:19;;;;;;;4.70;4.27;;;;;;;;;;5098653;28;20292;-67
2021/04/27 02:12:47;;;;;;;6.20;4.70;;;;;;;;;;5098610;28;20288;-67
2021/04/27 02:15:15;;;;;;;7.87;4.37;;;;;;;;;;5098464;28;20300;-67
2021/04/27 02:17:46;;;;;;;5.57;4.43;;;;;;;;;;5098537;28;20677;-67
2021/04/27 02:20:14;;;;;;;7.27;4.50;;;;;;;;;;5098392;28;20240;-66
2021/04/27 02:22:42;;;;;;;6.23;4.63;;;;;;;;;;5096692;28;20274;-67
2021/04/27 02:25:10;;;;;;;4.90;4.40;;;;;;;;;;5096900;28;20339;-67
2021/04/27 02:27:37;;;;;;;7.60;5.13;;;;;;;;;;5098431;28;20257;-66
2021/04/27 02:30:04;;;;;;;7.37;4.83;;;;;;;;;;5098417;28;20265;-67
2021/04/27 02:32:32;;;;;;;9.70;4.97;;;;;;;;;;5098622;28;20285;-66
2021/04/27 02:34:59;;;;;;;7.67;4.80;;;;;;;;;;5098367;28;20213;-66
2021/04/27 02:37:27;;;;;;;19.20;4.60;;;;;;;;;;5098016;28;20316;-67
2021/04/27 02:39:55;;;;;;;5.97;4.00;;;;;;;;;;5098189;28;20208;-65
2021/04/27 02:42:22;;;;;;;6.17;3.90;;;;;;;;;;5098123;28;20259;-67
2021/04/27 02:44:50;;;;;;;5.80;4.07;;;;;;;;;;5098096;28;20249;-66
2021/04/27 02:47:17;;;;;;;6.17;4.00;;;;;;;;;;5097809;28;20651;-66
2021/04/27 02:49:44;;;;;;;5.63;3.37;;;;;;;;;;5084764;28;20205;-67
2021/04/27 02:52:11;;;;;;;4.03;3.60;;;;;;;;;;5097695;28;20745;-67
2021/04/27 02:54:39;;;;;;;7.53;3.77;;;;;;;;;;5097926;28;20291;-67
2021/04/27 02:57:06;;;;;;;3.63;3.10;;;;;;;;;;5097967;28;20294;-67
2021/04/27 02:59:33;;;;;;;5.77;3.80;;;;;;;;;;5097966;28;20737;-67
2021/04/27 03:02:00;;;;;;;5.87;3.33;;;;;;;;;;5097842;28;20263;-67
2021/04/27 03:04:27;;;;;;;4.43;3.43;;;;;;;;;;5097943;28;20225;-67
2021/04/27 03:06:54;;;;;;;3.50;3.20;;;;;;;;;;5098234;28;20285;-67
2021/04/27 03:09:22;;;;;;;5.27;3.30;;;;;;;;;;5099127;28;20210;-66
2021/04/27 03:11:50;;;;;;;5.87;3.23;;;;;;;;;;5097615;28;20201;-67
2021/04/27 03:14:17;;;;;;;3.80;2.70;;;;;;;;;;5097689;28;20287;-66
2021/04/27 03:16:44;;;;;;;4.03;2.83;;;;;;;;;;5097627;28;20655;-67
2021/04/27 03:19:11;;;;;;;4.03;2.80;;;;;;;;;;5097962;28;20237;-66
2021/04/27 03:21:38;;;;;;;4.60;3.33;;;;;;;;;;5097385;28;20305;-66
2021/04/27 03:24:05;;;;;;;3.27;2.83;;;;;;;;;;5097671;28;20285;-67
2021/04/27 03:26:32;;;;;;;8.83;3.27;;;;;;;;;;5097921;28;20213;-67
2021/04/27 03:29:00;;;;;;;4.70;3.70;;;;;;;;;;5098510;28;20277;-67
2021/04/27 03:31:27;;;;;;;5.07;3.10;;;;;;;;;;5097988;28;20704;-67
2021/04/27 03:33:54;;;;;;;9.27;3.20;;;;;;;;;;5097881;28;20244;-67
2021/04/27 03:36:21;;;;;;;5.13;2.87;;;;;;;;;;5097410;28;20320;-67
2021/04/27 03:38:48;;;;;;;4.07;3.13;;;;;;;;;;5097866;28;20236;-66
2021/04/27 03:41:16;;;;;;;5.13;2.73;;;;;;;;;;5097382;28;20205;-67
2021/04/27 03:43:43;;;;;;;3.63;2.63;;;;;;;;;;5097782;28;20297;-67
2021/04/27 03:46:10;;;;;;;4.27;2.80;;;;;;;;;;5097635;28;20320;-67
2021/04/27 03:48:38;;;;;;;4.57;2.60;;;;;;;;;;5097486;28;20712;-67
2021/04/27 03:51:05;;;;;;;5.13;3.20;;;;;;;;;;5097350;28;20205;-67
2021/04/27 03:53:34;;;;;;;5.20;2.43;;;;;;;;;;5097768;28;20206;-67
2021/04/27 03:56:01;;;;;;;4.80;2.70;;;;;;;;;;5097414;28;20293;-66
2021/04/27 03:58:28;;;;;;;6.47;3.10;;;;;;;;;;5097198;28;20224;-66
2021/04/27 04:00:55;;;;;;;4.97;2.53;;;;;;;;;;5097572;28;20300;-65
2021/04/27 04:03:23;;;;;;;5.57;3.33;;;;;;;;;;5097431;28;20205;-66
2021/04/27 04:05:50;;;;;;;4.57;2.37;;;;;;;;;;5097533;28;20312;-66
2021/04/27 04:08:17;;;;;;;7.77;2.93;;;;;;;;;;5097650;28;20383;-67
2021/04/27 04:10:44;;;;;;;3.00;2.40;;;;;;;;;;5097375;28;20294;-67
2021/04/27 04:13:11;;;;;;;3.23;2.73;;;;;;;;;;5097434;28;20245;-67
2021/04/27 04:15:38;;;;;;;5.27;3.00;;;;;;;;;;5097366;28;20249;-67
2021/04/27 04:18:05;;;;;;;4.37;2.87;;;;;;;;;;5097577;28;20261;-67
2021/04/27 04:20:33;;;;;;;3.33;3.00;;;;;;;;;;5097391;28;20288;-67
2021/04/27 04:23:00;;;;;;;3.10;2.60;;;;;;;;;;5097725;28;20229;-67
2021/04/27 04:25:27;;;;;;;3.27;2.40;;;;;;;;;;5101018;28;20317;-67
2021/04/27 04:27:54;;;;;;;4.57;2.60;;;;;;;;;;5100734;28;20248;-65
2021/04/27 04:30:23;;;;;;;4.20;2.73;;;;;;;;;;5100999;28;20292;-66
2021/04/27 04:32:50;;;;;;;4.93;3.20;;;;;;;;;;5100939;28;20237;-66
2021/04/27 04:35:19;;;;;;;4.63;3.13;;;;;;;;;;5100384;28;20270;-66
2021/04/27 04:37:47;;;;;;;5.00;3.20;;;;;;;;;;5100680;28;20268;-67
2021/04/27 04:40:15;;;;;;;3.20;2.90;;;;;;;;;;5100793;28;20236;-66
2021/04/27 04:42:42;;;;;;;4.07;2.43;;;;;;;;;;5100453;28;20293;-66
2021/04/27 04:45:10;;;;;;;5.07;2.50;;;;;;;;;;5100489;28;20237;-65
2021/04/27 04:47:37;;;;;;;4.50;2.63;;;;;;;;;;5096484;28;20211;-65
2021/04/27 04:50:06;;;;;;;8.73;3.17;;;;;;;;;;5100667;28;20275;-65
2021/04/27 04:52:32;;;;;;;4.63;2.90;;;;;;;;;;5101032;28;20234;-66
2021/04/27 04:55:00;;;;;;;4.43;2.50;;;;;;;;;;5101220;28;20317;-65
2021/04/27 04:57:27;;;;;;;3.53;2.77;;;;;;;;;;5100362;28;20308;-66
2021/04/27 04:59:54;;;;;;;4.17;3.13;;;;;;;;;;5100222;28;20692;-65
2021/04/27 05:02:21;;;;;;;8.33;2.90;;;;;;;;;;5100384;28;20267;-67
2021/04/27 05:04:49;;;;;;;5.57;2.60;;;;;;;;;;5100334;28;20225;-66
2021/04/27 05:07:22;;;;;;;4.13;2.67;;;;;;;;;;5099612;28;20204;-66
2021/04/27 05:09:49;;;;;;;4.60;2.80;;;;;;;;;;5100003;28;20632;-66
2021/04/27 05:12:17;;;;;;;6.40;2.80;;;;;;;;;;5099666;28;20252;-66
2021/04/27 05:14:44;;;;;;;7.80;2.87;;;;;;;;;;5099966;28;20309;-68
2021/04/27 05:17:13;;;;;;;5.53;2.60;;;;;;;;;;5099770;28;20308;-68
2021/04/27 05:19:40;;;;;;;4.07;3.17;;;;;;;;;;5099727;28;20679;-67
2021/04/27 05:22:08;;;;;;;5.80;2.77;;;;;;;;;;5099622;28;20205;-67
2021/04/27 05:24:36;;;;;;;6.03;2.97;;;;;;;;;;5099631;28;20261;-65
2021/04/27 05:27:03;;;;;;;4.33;2.80;;;;;;;;;;5098023;28;20557;-65
2021/04/27 05:29:31;;;;;;;5.17;2.93;;;;;;;;;;5099103;28;20202;-65
2021/04/27 05:31:58;;;;;;;4.53;2.73;;;;;;;;;;5099476;28;20241;-65
2021/04/27 05:34:26;;;;;;;5.27;3.43;;;;;;;;;;5098684;28;20217;-66
2021/04/27 05:36:53;;;;;;;4.60;3.37;;;;;;;;;;5098671;28;20328;-67
2021/04/27 05:39:20;;;;;;;3.87;2.40;;;;;;;;;;5099069;28;20674;-68
2021/04/27 05:41:47;;;;;;;2.73;2.50;;;;;;;;;;5099173;28;20733;-67
2021/04/27 05:44:14;;;;;;;13.47;11.53;;;;;;;;;;5099216;28;20269;-67
2021/04/27 05:46:42;;;;;;;7.23;3.40;;;;;;;;;;5098897;28;20265;-64
2021/04/27 05:49:09;;;;;;;5.33;4.83;;;;;;;;;;5099374;28;20217;-67
2021/04/27 05:51:36;;;;;;;3.90;3.10;;;;;;;;;;5099259;28;20232;-68
2021/04/27 05:54:03;;;;;;;4.43;2.80;;;;;;;;;;5107689;28;20225;-66
2021/04/27 05:56:31;;;;;;;3.97;2.70;;;;;;;;;;5088143;28;20225;-65
2021/04/27 05:58:58;;;;;;;4.50;2.73;;;;;;;;;;5098731;28;20546;-64
2021/04/27 06:01:25;;;;;;;5.17;3.50;;;;;;;;;;5099390;28;20237;-64
2021/04/27 06:03:53;;;;;;;5.57;3.40;;;;;;;;;;5099729;28;20233;-66
2021/04/27 06:06:20;;;;;;;7.47;3.60;;;;;;;;;;5099179;28;20244;-65
2021/04/27 06:08:48;;;;;;;8.83;5.00;;;;;;;;;;5099002;28;20288;-66
2021/04/27 06:11:15;;;;;;;10.50;5.60;;;;;;;;;;5098739;28;20206;-66
2021/04/27 06:13:42;;;;;;;5.57;4.17;;;;;;;;;;5098434;28;20296;-66
2021/04/27 06:16:09;;;;;;;13.07;5.17;;;;;;;;;;5098486;28;20657;-66
2021/04/27 06:18:36;;;;;;;6.63;4.47;;;;;;;;;;5098703;28;20284;-66
2021/04/27 06:21:06;;;;;;;5.23;3.33;;;;;;;;;;5098571;28;20205;-65
2021/04/27 06:23:33;;;;;;;14.17;7.13;;;;;;;;;;5098787;28;20206;-66
2021/04/27 06:26:00;;;;;;;27.73;11.43;;;;;;;;;;5098625;28;20231;-66
2021/04/27 06:28:27;;;;;;;20.20;8.37;;;;;;;;;;5098416;28;20229;-66
2021/04/27 06:30:54;;;;;;;17.23;7.90;;;;;;;;;;5098726;28;20265;-65
2021/04/27 06:33:22;;;;;;;8.30;4.47;;;;;;;;;;5098167;28;20228;-65
2021/04/27 06:35:49;;;;;;;15.77;6.73;;;;;;;;;;5098138;28;20273;-65
2021/04/27 06:38:18;;;;;;;17.23;8.33;;;;;;;;;;5098839;28;20257;-66
2021/04/27 06:40:45;;;;;;;13.27;6.03;;;;;;;;;;5098836;28;20233;-66
2021/04/27 06:43:12;;;;;;;5.40;3.53;;;;;;;;;;5103145;28;20205;-68
2021/04/27 06:45:40;;;;;;;5.53;3.30;;;;;;;;;;5107012;28;20261;-68
2021/04/27 06:48:07;;;;;;;5.33;3.10;;;;;;;;;;5104248;28;20225;-69
2021/04/27 06:50:35;;;;;;;6.23;3.20;;;;;;;;;;5105732;28;20639;-69
2021/04/27 06:53:02;;;;;;;9.57;3.17;;;;;;;;;;5103804;28;20229;-72
2021/04/27 06:55:30;;;;;;;10.27;3.00;;;;;;;;;;5106881;28;20249;-68
2021/04/27 06:58:01;;;;;;;9.70;3.70;;;;;;;;;;5102771;28;20221;-68
2021/04/27 07:00:28;;;;;;;5.17;3.07;;;;;;;;;;5082495;28;20665;-68
2021/04/27 07:02:55;;;;;;;4.13;2.70;;;;;;;;;;5097596;28;20237;-69
2021/04/27 07:05:23;;;;;;;6.17;3.07;;;;;;;;;;5089815;28;20217;-68
2021/04/27 07:07:50;;;;;;;6.00;3.10;;;;;;;;;;5097509;28;20233;-68
2021/04/27 07:10:21;;;;;;;6.40;3.40;;;;;;;;;;5096391;28;20236;-69
2021/04/27 07:12:49;;;;;;;6.90;2.80;;;;;;;;;;5097690;28;20539;-68
2021/04/27 07:15:16;;;;;;;11.13;3.00;;;;;;;;;;5096511;28;20221;-68
2021/04/27 07:17:43;;;;;;;4.27;3.10;;;;;;;;;;5085188;28;20253;-67
2021/04/27 07:20:11;;;;;;;7.67;3.43;;;;;;;;;;5096521;28;20206;-67
2021/04/27 07:22:39;;;;;;;7.50;3.10;;;;;;;;;;5093491;28;20261;-67
2021/04/27 07:25:08;;;;;;;6.23;3.07;;;;;;;;;;5089078;28;20225;-66
2021/04/27 07:27:35;;;;;;;7.83;3.07;;;;;;;;;;5097566;28;20197;-66
2021/04/27 07:30:04;;;;;;;6.50;3.40;;;;;;;;;;5097634;28;20263;-67
2021/04/27 07:32:31;;;;;;;6.27;3.27;;;;;;;;;;5097379;28;20209;-66
2021/04/27 07:34:59;;;;;;;8.23;3.73;;;;;;;;;;5096919;28;20304;-65
2021/04/27 07:37:26;;;;;;;4.07;3.67;;;;;;;;;;5097430;28;20232;-66
2021/04/27 07:39:53;;;;;;;5.50;2.80;;;;;;;;;;5097316;28;20575;-65
2021/04/27 07:42:20;;;;;;;11.13;3.37;;;;;;;;;;5095046;28;20215;-67
2021/04/27 07:44:48;;;;;;;3.47;3.17;;;;;;;;;;5097237;28;20578;-66
2021/04/27 07:47:16;;;;;;;9.73;3.70;;;;;;;;;;5096926;28;20316;-66
2021/04/27 07:49:43;;;;;;;5.23;3.30;;;;;;;;;;5098514;28;20227;-67
2021/04/27 07:52:10;;;;;;;7.37;3.63;;;;;;;;;;5097944;28;20258;-66
2021/04/27 07:54:38;;;;;;;6.63;3.20;;;;;;;;;;5097042;28;20249;-65
2021/04/27 07:57:06;;;;;;;5.80;3.30;;;;;;;;;;5097359;28;20229;-66
2021/04/27 07:59:32;;;;;;;4.93;3.37;;;;;;;;;;5091685;28;20206;-67
2021/04/27 08:02:00;;;;;;;7.27;3.53;;;;;;;;;;5100931;28;20232;-67
2021/04/27 08:04:28;;;;;;;3.77;3.27;;;;;;;;;;5100881;28;20229;-68
2021/04/27 08:06:55;;;;;;;4.00;3.13;;;;;;;;;;5087242;28;20208;-67
2021/04/27 08:09:22;;;;;;;6.80;3.50;;;;;;;;;;5100784;28;20201;-67
2021/04/27 08:11:49;;;;;;;4.60;3.00;;;;;;;;;;5098499;28;20210;-68
2021/04/27 08:14:18;;;;;;;5.63;3.17;;;;;;;;;;5100843;28;20669;-68
2021/04/27 08:16:45;;;;;;;7.60;3.40;;;;;;;;;;5097658;28;20664;-67
2021/04/27 08:19:12;;;;;;;7.27;3.53;;;;;;;;;;5101547;28;20206;-68
2021/04/27 08:21:41;;;;;;;8.13;3.20;;;;;;;;;;5100426;28;20217;-68
2021/04/27 08:24:08;;;;;;;4.47;3.00;;;;;;;;;;5100844;28;20208;-69
2021/04/27 08:26:55;;;;;;;6.10;3.03;;;;;;;;;;5100871;28;20205;-68
2021/04/27 08:29:22;;;;;;;6.07;3.50;;;;;;;;;;5100390;28;20223;-68
2021/04/27 08:31:58;;;;;;;8.77;3.40;;;;;;;;;;5095507;28;20210;-68
2021/04/27 08:34:26;;;;;;;6.13;4.07;;;;;;;;;;5100744;28;20213;-69
2021/04/27 08:36:54;;;;;;;5.17;3.57;;;;;;;;;;5104602;28;20216;-68
2021/04/27 08:39:21;;;;;;;10.50;4.00;;;;;;;;;;5108137;28;21164;-68
2021/04/27 08:41:48;;;;;;;6.57;3.60;;;;;;;;;;5100510;27;20209;-68
2021/04/27 08:44:15;;;;;;;4.60;3.23;;;;;;;;;;5107035;28;20470;-68
2021/04/27 08:46:42;;;;;;;10.40;3.80;;;;;;;;;;5099251;28;20229;-68
2021/04/27 08:49:10;;;;;;;4.83;3.60;;;;;;;;;;5099100;28;20225;-68
2021/04/27 08:51:37;;;;;;;6.83;3.63;;;;;;;;;;5106244;28;20224;-68
2021/04/27 08:54:25;;;;;;;3.77;3.13;;;;;;;;;;5107845;28;20239;-67
2021/04/27 08:56:52;;;;;;;6.03;3.53;;;;;;;;;;5104102;28;20308;-69
2021/04/27 08:59:19;;;;;;;9.00;3.03;;;;;;;;;;5107062;28;20653;-69
2021/04/27 09:01:46;;;;;;;10.43;3.67;;;;;;;;;;5105354;28;20228;-68
2021/04/27 09:04:15;;;;;;;4.97;3.90;;;;;;;;;;5108198;28;20213;-70
2021/04/27 09:06:44;;;;;;;6.90;3.80;;;;;;;;;;5104891;28;20654;-69
2021/04/27 09:09:11;;;;;;;4.90;3.40;;;;;;;;;;5103487;28;20202;-71
2021/04/27 09:11:40;;;;;;;11.00;4.17;;;;;;;;;;5096057;28;20289;-69
2021/04/27 09:14:08;;;;;;;7.53;3.93;;;;;;;;;;5097263;28;20205;-68
2021/04/27 09:16:36;;;;;;;8.37;3.93;;;;;;;;;;5102706;28;20200;-69
2021/04/27 09:19:05;;;;;;;7.33;3.67;;;;;;;;;;5107801;28;20201;-70
2021/04/27 09:21:33;;;;;;;7.27;3.40;;;;;;;;;;5105000;28;20606;-70
2021/04/27 09:24:11;;;;;;;10.03;3.93;;;;;;;;;;5107309;28;20310;-70
2021/04/27 09:26:39;;;;;;;7.67;3.90;;;;;;;;;;5105336;28;20196;-70
2021/04/27 09:29:07;;;;;;;5.77;3.80;;;;;;;;;;5108387;28;20229;-69
2021/04/27 09:31:34;;;;;;;5.73;3.93;;;;;;;;;;5108289;28;20201;-70
2021/04/27 09:34:19;;;;;;;6.87;3.70;;;;;;;;;;5103475;28;20201;-69
2021/04/27 09:36:46;;;;;;;8.23;4.63;;;;;;;;;;5094651;28;20205;-70
2021/04/27 09:39:14;;;;;;;6.37;4.03;;;;;;;;;;5104426;28;20207;-70
2021/04/27 09:41:42;;;;;;;4.73;3.47;;;;;;;;;;5107931;28;20236;-70
2021/04/27 09:44:27;;;;;;;5.93;3.90;;;;;;;;;;5107705;28;20592;-70
2021/04/27 09:47:07;;;;;;;5.53;4.27;;;;;;;;;;5099012;28;20264;-70
2021/04/27 09:49:35;;;;;;;4.90;3.43;;;;;;;;;;5098844;28;20675;-69
2021/04/27 09:52:06;;;;;;;10.47;4.00;;;;;;;;;;5098376;28;20580;-68
2021/04/27 09:54:33;;;;;;;7.47;3.67;;;;;;;;;;5106635;28;20222;-70
2021/04/27 09:57:02;;;;;;;7.83;3.67;;;;;;;;;;5108672;28;20771;-69
2021/04/27 09:59:31;;;;;;;6.50;3.60;;;;;;;;;;5101974;28;20205;-69
2021/04/27 10:02:00;;;;;;;5.90;3.70;;;;;;;;;;5105037;28;20266;-70
2021/04/27 10:04:28;;;;;;;5.70;3.63;;;;;;;;;;5110280;28;20225;-70
2021/04/27 10:07:00;;;;;;;5.87;3.73;;;;;;;;;;5108637;28;20561;-71
2021/04/27 10:09:29;;;;;;;7.27;4.23;;;;;;;;;;5099555;28;20703;-70
2021/04/27 10:11:57;;;;;;;7.60;3.73;;;;;;;;;;5098286;28;20205;-70
2021/04/27 10:14:26;;;;;;;10.10;3.93;;;;;;;;;;5098179;28;20230;-70
2021/04/27 10:16:53;;;;;;;9.60;3.83;;;;;;;;;;5098200;28;20198;-70
2021/04/27 10:19:20;;;;;;;13.10;4.57;;;;;;;;;;5103851;28;20229;-70
2021/04/27 10:21:49;;;;;;;10.10;5.30;;;;;;;;;;5104996;28;20649;-70
2021/04/27 10:24:18;;;;;;;6.23;3.93;;;;;;;;;;5102586;28;20237;-70
2021/04/27 10:26:47;;;;;;;8.07;3.93;;;;;;;;;;5104561;28;20193;-70
2021/04/27 10:29:18;;;;;;;8.57;4.33;;;;;;;;;;5114492;28;20193;-70
2021/04/27 10:31:48;;;;;;;6.50;3.60;;;;;;;;;;5107649;28;20464;-70
2021/04/27 10:34:16;;;;;;;4.80;4.23;;;;;;;;;;5097873;28;20205;-70
2021/04/27 10:36:58;;;;;;;5.33;4.30;;;;;;;;;;5097941;28;20194;-70
2021/04/27 10:39:36;;;;;;;7.13;4.60;;;;;;;;;;5098369;28;20711;-69
2021/04/27 10:42:15;;;;;;;7.90;4.07;;;;;;;;;;5097965;28;20209;-69
2021/04/27 10:44:54;;;;;;;5.67;3.60;;;;;;;;;;5097888;28;20312;-70
2021/04/27 10:47:23;;;;;;;6.10;4.20;;;;;;;;;;5098706;28;20225;-70
2021/04/27 10:49:53;;;;;;;8.43;4.27;;;;;;;;;;5093962;28;20237;-69
2021/04/27 10:52:27;;;;;;;6.73;3.40;;;;;;;;;;5105093;28;20723;-69
2021/04/27 10:55:09;;;;;;;7.27;3.70;;;;;;;;;;5101475;28;20664;-68
2021/04/27 10:57:44;;;;;;;7.17;4.17;;;;;;;;;;5107460;28;20711;-70
2021/04/27 11:00:12;;;;;;;6.07;3.47;;;;;;;;;;5105132;28;20232;-71
2021/04/27 11:02:40;;;;;;;7.33;3.50;;;;;;;;;;5105053;28;20201;-70
2021/04/27 11:05:21;;;;;;;6.97;3.53;;;;;;;;;;5102862;28;20281;-71
2021/04/27 11:07:48;;;;;;;4.83;3.13;;;;;;;;;;5104303;28;20731;-69
2021/04/27 11:10:23;;;;;;;4.10;3.43;;;;;;;;;;5104435;28;20296;-68
2021/04/27 11:13:07;;;;;;;7.57;3.63;;;;;;;;;;5104033;28;20601;-71
2021/04/27 11:15:35;;;;;;;10.00;3.43;;;;;;;;;;5099550;28;20222;-70
2021/04/27 11:18:10;;;;;;;6.10;3.77;;;;;;;;;;5106454;28;20217;-69
2021/04/27 11:20:45;;;;;;;7.07;3.67;;;;;;;;;;5096344;28;20679;-72
2021/04/27 11:23:26;;;;;;;5.57;3.30;;;;;;;;;;5106260;28;20284;-69
2021/04/27 11:25:53;;;;;;;7.13;3.23;;;;;;;;;;5105147;28;20216;-68
2021/04/27 11:28:40;;;;;;;6.53;3.40;;;;;;;;;;5095414;28;20200;-69
2021/04/27 11:31:14;;;;;;;5.90;3.40;;;;;;;;;;5096121;28;20209;-71
2021/04/27 11:33:42;;;;;;;4.57;4.00;;;;;;;;;;5103070;28;20196;-69
2021/04/27 11:36:10;;;;;;;4.60;3.50;;;;;;;;;;5103748;28;20308;-70
2021/04/27 11:38:37;;;;;;;7.37;3.80;;;;;;;;;;5108314;28;20285;-70
2021/04/27 11:41:05;;;;;;;8.53;3.70;;;;;;;;;;5106139;28;20676;-70
2021/04/27 11:43:33;;;;;;;7.93;4.07;;;;;;;;;;5107949;28;20227;-71
2021/04/27 11:46:01;;;;;;;6.83;3.70;;;;;;;;;;5108465;28;20228;-71
2021/04/27 11:48:28;;;;;;;7.27;3.80;;;;;;;;;;5104706;28;20276;-71
2021/04/27 11:50:56;;;;;;;9.00;3.93;;;;;;;;;;5101743;28;20259;-70
2021/04/27 11:53:25;;;;;;;7.87;4.77;;;;;;;;;;5105964;28;20692;-70
2021/04/27 11:55:53;;;;;;;10.53;6.97;;;;;;;;;;5108440;28;20655;-70
2021/04/27 11:58:22;;;;;;;10.47;5.60;;;;;;;;;;5110260;28;20721;-70
2021/04/27 12:00:50;;;;;;;8.77;4.90;;;;;;;;;;5102439;28;20225;-69
2021/04/27 12:03:22;;;;;;;6.33;3.83;;;;;;;;;;5107811;28;20230;-69
2021/04/27 12:05:50;;;;;;;9.70;4.50;;;;;;;;;;5105190;28;20294;-69
2021/04/27 12:08:18;;;;;;;4.93;3.37;;;;;;;;;;5107977;28;20227;-69
2021/04/27 12:10:45;;;;;;;5.73;3.73;;;;;;;;;;5104243;28;20280;-70
2021/04/27 12:13:19;;;;;;;5.83;3.57;;;;;;;;;;5108890;28;20624;-70
2021/04/27 12:16:01;;;;;;;5.40;4.10;;;;;;;;;;5108834;28;20241;-71
2021/04/27 12:18:28;;;;;;;5.67;3.70;;;;;;;;;;5106671;28;20222;-70
2021/04/27 12:20:55;;;;;;;5.03;3.63;;;;;;;;;;5103911;28;20725;-69
2021/04/27 12:23:24;;;;;;;9.33;3.87;;;;;;;;;;5100561;28;20209;-69
2021/04/27 12:25:51;;;;;;;6.33;3.40;;;;;;;;;;5098322;28;20222;-70
2021/04/27 12:28:18;;;;;;;7.20;3.63;;;;;;;;;;5099033;28;20296;-70
2021/04/27 12:30:47;;;;;;;9.97;3.70;;;;;;;;;;5098365;28;20300;-69
2021/04/27 12:33:16;;;;;;;5.60;4.00;;;;;;;;;;5099350;28;20724;-69
2021/04/27 12:35:43;;;;;;;7.67;4.60;;;;;;;;;;5095577;28;20236;-69
2021/04/27 12:38:11;;;;;;;9.10;4.57;;;;;;;;;;5090265;28;20321;-69
2021/04/27 12:40:40;;;;;;;4.80;3.37;;;;;;;;;;5093991;28;20596;-69
2021/04/27 12:43:08;;;;;;;4.57;3.57;;;;;;;;;;5099224;28;20233;-71
2021/04/27 12:45:46;;;;;;;6.10;3.77;;;;;;;;;;5097262;28;20265;-68
2021/04/27 12:48:13;;;;;;;5.53;3.80;;;;;;;;;;5097281;28;20198;-69
2021/04/27 12:50:44;;;;;;;6.40;3.40;;;;;;;;;;5092912;28;20201;-69
2021/04/27 12:53:11;;;;;;;5.67;3.53;;;;;;;;;;5099016;28;20285;-70
2021/04/27 12:55:39;;;;;;;6.17;3.80;;;;;;;;;;5099045;28;20308;-71
2021/04/27 12:58:07;;;;;;;9.00;3.43;;;;;;;;;;5100399;28;20329;-69
2021/04/27 13:00:34;;;;;;;7.07;3.70;;;;;;;;;;5096215;28;20210;-68
2021/04/27 13:03:15;;;;;;;4.53;3.73;;;;;;;;;;5106856;28;20212;-70
2021/04/27 13:05:42;;;;;;;5.60;3.13;;;;;;;;;;5097587;28;20285;-69
2021/04/27 13:08:09;;;;;;;4.37;3.53;;;;;;;;;;5098562;28;20201;-70
2021/04/27 13:10:37;;;;;;;5.30;3.10;;;;;;;;;;5093820;28;20545;-70
2021/04/27 13:13:11;;;;;;;5.27;3.40;;;;;;;;;;5096757;28;20210;-70
2021/04/27 13:15:38;;;;;;;4.83;2.93;;;;;;;;;;5089231;28;20304;-71
2021/04/27 13:18:06;;;;;;;4.57;2.90;;;;;;;;;;5096605;28;20221;-70
2021/04/27 13:20:36;;;;;;;6.00;2.80;;;;;;;;;;5092448;28;20213;-70
2021/04/27 13:23:05;;;;;;;4.07;3.03;;;;;;;;;;5094958;28;20202;-70
2021/04/27 13:25:33;;;;;;;4.60;2.90;;;;;;;;;;5092081;28;20242;-69
2021/04/27 13:28:01;;;;;;;5.63;3.33;;;;;;;;;;5096566;28;20204;-70
2021/04/27 13:30:30;;;;;;;3.67;2.83;;;;;;;;;;5095922;28;20284;-70
2021/04/27 13:32:59;;;;;;;5.93;3.40;;;;;;;;;;5099063;28;20213;-73
2021/04/27 13:35:28;;;;;;;6.57;3.30;;;;;;;;;;5088336;28;20222;-73
2021/04/27 13:37:56;;;;;;;9.37;3.27;;;;;;;;;;5093351;28;20285;-72
2021/04/27 13:40:23;;;;;;;3.67;2.90;;;;;;;;;;5094981;28;20205;-72
2021/04/27 13:42:51;;;;;;;4.73;3.10;;;;;;;;;;5099118;28;20297;-72
2021/04/27 13:45:19;;;;;;;4.00;3.00;;;;;;;;;;5097544;28;20278;-72
2021/04/27 13:47:48;;;;;;;6.13;3.17;;;;;;;;;;5081672;28;20213;-74
2021/04/27 13:50:16;;;;;;;6.77;3.43;;;;;;;;;;5090331;28;20292;-74
2021/04/27 13:52:43;;;;;;;5.87;3.30;;;;;;;;;;5097058;28;20201;-73
2021/04/27 13:55:10;;;;;;;4.73;3.03;;;;;;;;;;5095501;28;20760;-73
2021/04/27 13:57:37;;;;;;;4.10;2.83;;;;;;;;;;5098879;28;20240;-73
2021/04/27 14:00:07;;;;;;;3.60;2.60;;;;;;;;;;5096963;28;20201;-73
2021/04/27 14:02:34;;;;;;;6.80;3.10;;;;;;;;;;5097257;28;20727;-73
2021/04/27 14:05:04;;;;;;;6.40;2.80;;;;;;;;;;5097407;28;20226;-73
2021/04/27 14:07:31;;;;;;;5.47;2.77;;;;;;;;;;5084958;28;20228;-73
2021/04/27 14:09:58;;;;;;;6.00;3.53;;;;;;;;;;5096150;28;20208;-70
2021/04/27 14:12:26;;;;;;;4.40;2.93;;;;;;;;;;5081918;28;20285;-70
2021/04/27 14:14:54;;;;;;;4.33;2.53;;;;;;;;;;5097854;28;20218;-70
2021/04/27 14:17:21;;;;;;;4.83;2.70;;;;;;;;;;5085406;28;20204;-70
2021/04/27 14:19:48;;;;;;;6.30;3.23;;;;;;;;;;5098257;28;20206;-70
2021/04/27 14:22:16;;;;;;;3.00;2.60;;;;;;;;;;5087835;28;20633;-70
2021/04/27 14:24:43;;;;;;;8.57;3.77;;;;;;;;;;5098402;28;20327;-70
2021/04/27 14:27:12;;;;;;;4.73;2.77;;;;;;;;;;5096602;28;20235;-70
2021/04/27 14:29:40;;;;;;;5.33;2.70;;;;;;;;;;5095765;28;20290;-70
2021/04/27 14:32:07;;;;;;;5.30;3.40;;;;;;;;;;5083948;28;20266;-70
2021/04/27 14:34:35;;;;;;;6.20;3.30;;;;;;;;;;5096681;28;20214;-71
2021/04/27 14:37:02;;;;;;;2.90;2.43;;;;;;;;;;5084073;28;20284;-70
2021/04/27 14:39:30;;;;;;;4.23;2.97;;;;;;;;;;5093361;28;20306;-70
2021/04/27 14:41:57;;;;;;;4.57;2.90;;;;;;;;;;5089327;28;20712;-70
2021/04/27 14:44:24;;;;;;;6.93;2.70;;;;;;;;;;5096053;28;20586;-70
2021/04/27 14:46:51;;;;;;;5.67;2.83;;;;;;;;;;5096950;28;20243;-70
2021/04/27 14:49:18;;;;;;;4.73;2.90;;;;;;;;;;5098090;28;20197;-70